92G weather

Midlakes Airport
Gorham, New York, United States

Public forecast

Using degrees Fahrenheit for public forecast. Weather courtesy of forecast.io.

METAR (pilot weather report)

Closest report is Penn Yan Airport, 12.5 nm (23.1 km) SSE. Retrieved 2019/05/24 17:53 UTC (44 minutes ago):

KPEO 241753Z AUTO 33012G17KT 10SM BKN030 OVC036 18/11 A3010 RMK AO2 SLP191 T01780106 10183 20139 51015

TAF (pilot weather forecast)

Closest forecast is Greater Rochester International Airport, 27.6 nm (51.1 km) NW. Retrieved 2019/05/24 18:22 UTC (15 minutes ago):

TAF KROC 241720Z 2418/2518 31010KT P6SM BKN030 FM250300 00000KT P6SM FEW250 FM251300 17008KT P6SM OVC050 FM251500 18009KT P6SM VCSH OVC040 FM251700 19011G17KT P6SM -SHRA VCTS OVC035CB